Terminal Aerodrome Forecast
Issued by NWS Newport/Morehead City, NC

Home | Current Version | Previous Version | Graphics & Text | Print | Product List | Glossary On
Versions: 1 2 3 4 5 6 7 8 9 10 11 12 13
000
FTUS42 KMHX 301121
TAFEWN
TAF
KEWN 301121Z 3012/3112 VRB03KT P6SM SCT110
     FM301700 20007KT P6SM VCTS BKN040CB
     FM310300 19006KT P6SM SCT060
     FM310900 21005KT 5SM BR SCT050=

USA.gov is the U.S. government's official web portal to all federal, state and local government web resources and services.